Time;durP1;ratioP1;P1;durP2;ratioP2;P2;SDS_P1;SDS_P2;PMS_P1;PMS_P2;Temp;Humidity;BMP_temperature;BMP_pressure;BME280_temperature;BME280_humidity;BME280_pressure;Samples;Min_cycle;Max_cycle;Signal;HPM_P1;HPM_P2
2022/06/20 00:00:41;;;;;;;3.72;0.60;;;;;20.80;101303.00;;;;5046721;28;20584;-76
2022/06/20 00:03:13;;;;;;;1.25;0.40;;;;;20.80;101302.00;;;;5045974;28;20211;-76
2022/06/20 00:05:41;;;;;;;3.60;0.40;;;;;20.80;101296.00;;;;5045276;28;20660;-76
2022/06/20 00:08:11;;;;;;;2.55;0.43;;;;;20.80;101302.00;;;;5046077;28;20195;-76
2022/06/20 00:10:43;;;;;;;3.75;0.60;;;;;20.80;101291.00;;;;5046491;28;20187;-76
2022/06/20 00:13:19;;;;;;;2.88;0.77;;;;;20.70;101287.00;;;;5046606;28;20301;-76
2022/06/20 00:15:49;;;;;;;3.65;0.60;;;;;20.80;101306.00;;;;5046922;28;20199;-76
2022/06/20 00:18:17;;;;;;;4.57;0.60;;;;;20.80;101307.00;;;;5045903;28;20300;-76
2022/06/20 00:20:45;;;;;;;2.97;0.40;;;;;20.80;101317.00;;;;5046874;28;20195;-76
2022/06/20 00:23:12;;;;;;;1.40;0.45;;;;;20.80;101317.00;;;;5044336;28;20223;-76
2022/06/20 00:25:41;;;;;;;5.93;0.63;;;;;20.80;101314.00;;;;5046535;28;20188;-76
2022/06/20 00:28:12;;;;;;;3.85;0.50;;;;;20.70;101316.00;;;;5046234;28;21074;-77
2022/06/20 00:30:40;;;;;;;1.45;0.40;;;;;20.80;101309.00;;;;5047174;28;20199;-77
2022/06/20 00:33:08;;;;;;;1.60;0.68;;;;;20.80;101294.00;;;;5045425;28;20583;-76
2022/06/20 00:35:37;;;;;;;3.70;0.63;;;;;20.70;101292.00;;;;5046622;28;20649;-76
2022/06/20 00:38:06;;;;;;;1.80;0.60;;;;;20.70;101290.00;;;;5044515;28;20200;-76
2022/06/20 00:40:36;;;;;;;3.25;0.55;;;;;20.70;101284.00;;;;5046739;28;20207;-76
2022/06/20 00:43:06;;;;;;;2.25;0.60;;;;;20.70;101287.00;;;;5044573;28;20223;-76
2022/06/20 00:45:39;;;;;;;1.90;0.70;;;;;20.70;101299.00;;;;5046919;28;20188;-76
2022/06/20 00:48:11;;;;;;;2.42;1.00;;;;;20.70;101293.00;;;;5044794;28;20673;-75
2022/06/20 00:50:38;;;;;;;1.30;0.60;;;;;20.70;101304.00;;;;5046564;28;20688;-76
2022/06/20 00:53:12;;;;;;;2.25;0.73;;;;;20.60;101302.00;;;;5045478;28;20215;-76
2022/06/20 00:55:44;;;;;;;2.30;0.50;;;;;20.60;101299.00;;;;5045176;28;20211;-75
2022/06/20 00:58:17;;;;;;;1.73;0.50;;;;;20.60;101302.00;;;;5045734;28;20269;-76
2022/06/20 01:00:46;;;;;;;2.30;0.60;;;;;20.60;101309.00;;;;5048188;28;20204;-76
2022/06/20 01:03:17;;;;;;;2.90;0.68;;;;;20.60;101316.00;;;;5048961;28;20191;-76
2022/06/20 01:05:49;;;;;;;2.22;0.50;;;;;20.60;101333.00;;;;5050956;28;20199;-76
2022/06/20 01:08:21;;;;;;;2.47;0.70;;;;;20.60;101346.00;;;;5050533;28;20208;-76
2022/06/20 01:10:51;;;;;;;2.15;0.47;;;;;20.60;101363.00;;;;5049933;28;20195;-76
2022/06/20 01:13:22;;;;;;;4.68;1.20;;;;;20.60;101373.00;;;;5045546;28;20223;-76
2022/06/20 01:15:53;;;;;;;2.95;0.75;;;;;20.60;101381.00;;;;5048260;28;20213;-76
2022/06/20 01:18:24;;;;;;;2.50;0.35;;;;;20.60;101385.00;;;;5048098;28;20207;-76
2022/06/20 01:20:54;;;;;;;1.40;0.50;;;;;20.60;101397.00;;;;5050886;28;20203;-76
2022/06/20 01:23:36;;;;;;;3.15;0.40;;;;;20.50;101392.00;;;;5048728;28;20222;-76
2022/06/20 01:26:19;;;;;;;1.85;0.63;;;;;20.50;101398.00;;;;5049943;28;20196;-76
2022/06/20 01:28:50;;;;;;;5.03;0.60;;;;;20.60;101405.00;;;;5049580;28;20199;-76
2022/06/20 01:31:20;;;;;;;1.27;0.65;;;;;20.60;101407.00;;;;5048749;28;20203;-76
2022/06/20 01:33:48;;;;;;;1.50;0.60;;;;;20.60;101403.00;;;;5050238;28;20219;-76
2022/06/20 01:39:03;;;;;;;1.58;0.68;;;;;20.60;101395.00;;;;5048752;28;20765;-76
2022/06/20 01:44:20;;;;;;;2.78;0.80;;;;;20.60;101392.00;;;;5049232;28;20234;-76
2022/06/20 01:46:47;;;;;;;4.40;1.17;;;;;20.60;101388.00;;;;5048103;28;20715;-76
2022/06/20 01:49:19;;;;;;;1.38;0.50;;;;;20.60;101383.00;;;;5047895;28;20196;-76
2022/06/20 01:51:52;;;;;;;2.08;0.47;;;;;20.50;101377.00;;;;5048903;28;20195;-76
2022/06/20 01:54:22;;;;;;;2.92;0.85;;;;;20.60;101370.00;;;;5049246;28;20200;-76
2022/06/20 01:56:51;;;;;;;2.50;0.75;;;;;20.60;101369.00;;;;5048746;28;20199;-76
2022/06/20 01:59:27;;;;;;;2.25;0.70;;;;;20.50;101368.00;;;;5048716;28;20690;-76
2022/06/20 02:01:55;;;;;;;2.35;1.00;;;;;20.60;101357.00;;;;5047084;28;20195;-76
2022/06/20 02:04:26;;;;;;;0.75;0.50;;;;;20.60;101347.00;;;;5048690;28;20583;-76
2022/06/20 02:06:55;;;;;;;1.92;0.90;;;;;20.60;101355.00;;;;5049619;28;20192;-76
2022/06/20 02:09:23;;;;;;;2.65;0.55;;;;;20.60;101345.00;;;;5048921;28;20601;-76
2022/06/20 02:11:50;;;;;;;4.60;0.93;;;;;20.60;101347.00;;;;5047650;28;20207;-76
2022/06/20 02:14:24;;;;;;;2.05;0.70;;;;;20.50;101330.00;;;;5048497;28;20203;-76
2022/06/20 02:16:57;;;;;;;2.08;0.60;;;;;20.50;101338.00;;;;5048296;28;20206;-77
2022/06/20 02:19:31;;;;;;;2.17;0.77;;;;;20.50;101323.00;;;;5046216;28;20188;-76
2022/06/20 02:22:01;;;;;;;3.38;0.50;;;;;20.50;101314.00;;;;5044876;28;20234;-76
2022/06/20 02:24:33;;;;;;;2.83;0.68;;;;;20.50;101327.00;;;;5048780;28;20674;-76
2022/06/20 02:27:04;;;;;;;2.83;0.80;;;;;20.50;101325.00;;;;5045854;28;20198;-76
2022/06/20 02:29:33;;;;;;;2.45;0.65;;;;;20.50;101337.00;;;;5046902;28;20227;-76
2022/06/20 02:32:06;;;;;;;2.30;0.93;;;;;20.50;101339.00;;;;5048392;28;20698;-76
2022/06/20 02:34:34;;;;;;;4.05;1.08;;;;;20.60;101347.00;;;;5047228;28;20265;-76
2022/06/20 02:37:09;;;;;;;1.42;0.70;;;;;20.60;101341.00;;;;5047227;28;20246;-76
2022/06/20 02:39:38;;;;;;;1.80;0.93;;;;;20.60;101340.00;;;;5046311;28;20281;-76
2022/06/20 02:42:11;;;;;;;2.00;0.98;;;;;20.50;101340.00;;;;5046770;28;20194;-76
2022/06/20 02:44:42;;;;;;;2.80;0.60;;;;;20.50;101345.00;;;;5047647;28;20313;-77
2022/06/20 02:47:10;;;;;;;3.88;0.70;;;;;20.60;101344.00;;;;5048486;28;20199;-77
2022/06/20 02:49:39;;;;;;;2.72;0.70;;;;;20.60;101338.00;;;;5047743;28;20685;-76
2022/06/20 02:52:09;;;;;;;3.42;0.90;;;;;20.60;101330.00;;;;5046349;28;20199;-76
2022/06/20 02:54:39;;;;;;;6.53;0.77;;;;;20.60;101322.00;;;;5044882;28;20195;-77
2022/06/20 02:57:13;;;;;;;4.03;0.68;;;;;20.50;101316.00;;;;5047567;28;20199;-77
2022/06/20 02:59:47;;;;;;;1.92;0.88;;;;;20.50;101321.00;;;;5048657;28;20250;-77
2022/06/20 03:02:18;;;;;;;5.22;0.60;;;;;20.50;101323.00;;;;5048472;28;20198;-76
2022/06/20 03:04:46;;;;;;;4.00;0.98;;;;;20.60;101314.00;;;;5048032;28;20190;-77
2022/06/20 03:07:17;;;;;;;2.88;0.50;;;;;20.50;101315.00;;;;5047476;28;20196;-76
2022/06/20 03:09:51;;;;;;;3.08;0.82;;;;;20.50;101304.00;;;;5047095;28;20211;-76
2022/06/20 03:12:18;;;;;;;2.90;1.00;;;;;20.50;101301.00;;;;5046839;28;20230;-77
2022/06/20 03:14:52;;;;;;;1.00;0.50;;;;;20.50;101290.00;;;;5048793;28;20183;-77
2022/06/20 03:17:21;;;;;;;1.63;0.73;;;;;20.50;101291.00;;;;5046460;28;20196;-76
2022/06/20 03:19:52;;;;;;;4.13;0.77;;;;;20.50;101290.00;;;;5045488;28;20194;-77
2022/06/20 03:22:21;;;;;;;2.28;0.80;;;;;20.50;101291.00;;;;5046045;28;20224;-77
2022/06/20 03:24:50;;;;;;;2.58;0.63;;;;;20.50;101296.00;;;;5047067;28;20194;-77
2022/06/20 03:27:21;;;;;;;2.08;0.73;;;;;20.40;101297.00;;;;5044762;28;20203;-76
2022/06/20 03:29:54;;;;;;;1.15;0.57;;;;;20.40;101294.00;;;;5046910;28;20212;-76
2022/06/20 03:32:22;;;;;;;3.55;0.98;;;;;20.40;101284.00;;;;5045182;28;20562;-76
2022/06/20 03:34:50;;;;;;;2.88;0.73;;;;;20.40;101280.00;;;;5047492;28;20192;-76
2022/06/20 03:37:17;;;;;;;5.38;0.68;;;;;20.40;101271.00;;;;5043126;28;20999;-76
2022/06/20 03:39:46;;;;;;;1.05;0.40;;;;;20.40;101268.00;;;;5046768;28;20199;-76
2022/06/20 03:42:14;;;;;;;1.35;0.50;;;;;20.40;101264.00;;;;5046540;28;20196;-76
2022/06/20 03:44:46;;;;;;;0.85;0.52;;;;;20.30;101268.00;;;;5046656;28;20202;-76
2022/06/20 03:47:21;;;;;;;2.75;0.50;;;;;20.20;101275.00;;;;5045895;28;20210;-76
2022/06/20 03:49:55;;;;;;;1.48;0.52;;;;;20.20;101266.00;;;;5044679;28;20207;-77
2022/06/20 03:52:24;;;;;;;2.13;0.70;;;;;20.20;101262.00;;;;5046142;28;20200;-77
2022/06/20 03:54:58;;;;;;;1.38;0.40;;;;;20.20;101265.00;;;;5049264;28;20187;-77
2022/06/20 03:57:31;;;;;;;3.45;0.85;;;;;20.10;101269.00;;;;5047103;28;20214;-76
2022/06/20 04:00:03;;;;;;;2.05;0.68;;;;;20.10;101271.00;;;;5046264;28;20215;-77
2022/06/20 04:02:38;;;;;;;3.22;1.00;;;;;20.10;101277.00;;;;5046590;28;20210;-77
2022/06/20 04:05:11;;;;;;;3.33;0.80;;;;;20.10;101283.00;;;;5046101;28;20543;-76
2022/06/20 04:07:44;;;;;;;2.35;0.70;;;;;20.00;101279.00;;;;5047325;28;20200;-76
2022/06/20 04:13:08;;;;;;;6.47;0.80;;;;;20.00;101280.00;;;;5043812;28;20207;-76
2022/06/20 04:15:39;;;;;;;0.73;0.40;;;;;20.00;101283.00;;;;5045618;28;20195;-77
2022/06/20 04:18:29;;;;;;;4.15;0.55;;;;;20.00;101287.00;;;;5043442;28;20218;-76
2022/06/20 04:21:09;;;;;;;1.17;0.65;;;;;20.00;101292.00;;;;5043410;28;20199;-77
2022/06/20 04:23:41;;;;;;;1.00;0.80;;;;;20.10;101294.00;;;;5045670;28;20218;-76
2022/06/20 04:26:13;;;;;;;5.03;1.00;;;;;20.10;101308.00;;;;5045334;28;20408;-77
2022/06/20 04:28:48;;;;;;;4.28;0.88;;;;;20.10;101311.00;;;;5045765;28;20207;-76
2022/06/20 04:31:20;;;;;;;3.15;0.70;;;;;20.10;101311.00;;;;5046160;28;20696;-76
2022/06/20 04:33:54;;;;;;;4.40;1.15;;;;;20.10;101314.00;;;;5044011;28;20259;-77
2022/06/20 04:36:30;;;;;;;2.03;0.70;;;;;20.10;101321.00;;;;5046921;28;20207;-77
2022/06/20 04:39:03;;;;;;;2.60;0.70;;;;;20.10;101313.00;;;;5048249;28;20195;-77
2022/06/20 04:41:39;;;;;;;1.48;0.47;;;;;20.10;101318.00;;;;5049657;28;20196;-76
2022/06/20 04:44:14;;;;;;;1.35;0.60;;;;;20.20;101326.00;;;;5048583;28;20580;-77
2022/06/20 04:46:47;;;;;;;0.80;0.47;;;;;20.20;101333.00;;;;5049752;28;20196;-77
2022/06/20 04:49:17;;;;;;;4.85;0.93;;;;;20.20;101334.00;;;;5049227;28;20204;-77
2022/06/20 04:51:49;;;;;;;2.47;0.93;;;;;20.20;101341.00;;;;5049847;28;20202;-77
2022/06/20 04:54:20;;;;;;;4.22;0.80;;;;;20.30;101341.00;;;;5049526;28;20661;-77
2022/06/20 04:56:50;;;;;;;2.75;1.52;;;;;20.30;101337.00;;;;5048897;28;20195;-77
2022/06/20 04:59:22;;;;;;;3.08;0.93;;;;;20.30;101348.00;;;;5047524;28;20195;-77
2022/06/20 05:01:50;;;;;;;2.90;0.57;;;;;20.40;101350.00;;;;5048255;28;20192;-77
2022/06/20 05:04:28;;;;;;;1.40;0.47;;;;;20.40;101341.00;;;;5050677;28;20219;-77
2022/06/20 05:06:58;;;;;;;3.45;0.85;;;;;20.50;101336.00;;;;5048372;28;20188;-77
2022/06/20 05:09:31;;;;;;;2.33;0.90;;;;;20.50;101336.00;;;;5047824;28;20192;-77
2022/06/20 05:12:07;;;;;;;3.15;1.10;;;;;20.50;101341.00;;;;5046878;28;20912;-77
2022/06/20 05:14:43;;;;;;;2.50;0.57;;;;;20.50;101336.00;;;;5049605;28;20199;-76
2022/06/20 05:17:17;;;;;;;1.33;0.52;;;;;20.60;101341.00;;;;5035615;28;20657;-77
2022/06/20 05:19:49;;;;;;;4.15;0.82;;;;;20.60;101335.00;;;;5049047;28;20192;-77
2022/06/20 05:22:21;;;;;;;2.35;0.73;;;;;20.70;101340.00;;;;5038249;28;20220;-77
2022/06/20 05:24:50;;;;;;;1.70;0.60;;;;;20.70;101341.00;;;;5051160;28;20235;-77
2022/06/20 05:27:23;;;;;;;2.15;0.90;;;;;20.70;101334.00;;;;5045308;28;20196;-77
2022/06/20 05:29:54;;;;;;;1.67;0.85;;;;;20.70;101342.00;;;;5051225;28;20199;-77
2022/06/20 05:32:26;;;;;;;6.32;1.00;;;;;20.70;101345.00;;;;5050995;28;20235;-78
2022/06/20 05:35:00;;;;;;;3.05;0.77;;;;;20.80;101348.00;;;;5050958;28;20203;-78
2022/06/20 05:37:35;;;;;;;1.85;0.80;;;;;20.80;101352.00;;;;5043885;28;20196;-77
2022/06/20 05:40:12;;;;;;;1.77;0.70;;;;;20.80;101340.00;;;;5032374;28;21042;-77
2022/06/20 05:42:39;;;;;;;2.35;0.90;;;;;20.90;101346.00;;;;5050302;28;20233;-78
2022/06/20 05:45:16;;;;;;;2.88;0.70;;;;;20.90;101356.00;;;;5048508;28;20219;-77
2022/06/20 05:47:50;;;;;;;2.83;1.10;;;;;21.00;101364.00;;;;5036013;28;20657;-78
2022/06/20 05:50:40;;;;;;;3.50;1.08;;;;;21.00;101375.00;;;;5050325;28;20360;-77
2022/06/20 05:53:14;;;;;;;2.25;0.95;;;;;21.10;101371.00;;;;5046818;28;20199;-77
2022/06/20 05:55:45;;;;;;;4.97;1.05;;;;;21.10;101365.00;;;;5036353;28;20208;-78
2022/06/20 05:58:20;;;;;;;2.65;1.10;;;;;21.10;101381.00;;;;5044847;28;20196;-78
2022/06/20 06:00:49;;;;;;;2.63;0.90;;;;;21.20;101385.00;;;;5044167;28;20211;-77
2022/06/20 06:03:23;;;;;;;3.67;1.10;;;;;21.20;101389.00;;;;5050634;28;20231;-78
2022/06/20 06:05:58;;;;;;;4.38;0.95;;;;;21.30;101392.00;;;;5050258;28;20203;-77
2022/06/20 06:08:31;;;;;;;2.63;1.00;;;;;21.30;101397.00;;;;5045365;28;20681;-75
2022/06/20 06:11:02;;;;;;;2.60;1.20;;;;;21.40;101394.00;;;;5038745;28;20207;-75
2022/06/20 06:13:37;;;;;;;3.22;1.15;;;;;21.40;101400.00;;;;5050170;28;20199;-75
2022/06/20 06:18:58;;;;;;;5.03;1.73;;;;;21.60;101402.00;;;;5039998;28;20711;-75
2022/06/20 06:21:28;;;;;;;4.13;1.45;;;;;21.60;101404.00;;;;5050243;28;20202;-75
2022/06/20 06:23:56;;;;;;;3.75;1.10;;;;;21.70;101404.00;;;;5049128;28;20696;-76
2022/06/20 06:26:23;;;;;;;4.95;1.13;;;;;21.70;101410.00;;;;5049007;28;20195;-75
2022/06/20 06:28:53;;;;;;;3.38;1.30;;;;;21.80;101404.00;;;;5048321;28;20204;-75
2022/06/20 06:31:25;;;;;;;2.83;1.10;;;;;21.80;101410.00;;;;5047001;28;20199;-76
2022/06/20 06:33:55;;;;;;;2.33;1.05;;;;;21.90;101415.00;;;;5048911;28;20196;-75
2022/06/20 06:36:31;;;;;;;4.32;1.35;;;;;21.90;101410.00;;;;5038768;28;20197;-77
2022/06/20 06:39:05;;;;;;;5.28;1.20;;;;;21.90;101410.00;;;;5042750;28;20195;-77
2022/06/20 06:41:36;;;;;;;3.10;1.23;;;;;22.00;101418.00;;;;5043349;28;20223;-77
2022/06/20 06:44:14;;;;;;;4.03;1.50;;;;;22.00;101414.00;;;;5049099;28;20231;-77
2022/06/20 06:46:45;;;;;;;2.45;1.25;;;;;22.10;101425.00;;;;5050627;28;20196;-77
2022/06/20 06:49:24;;;;;;;4.28;1.60;;;;;22.10;101426.00;;;;5049287;28;20196;-77
2022/06/20 06:51:59;;;;;;;2.40;1.00;;;;;22.20;101422.00;;;;5033787;28;20204;-77
2022/06/20 06:54:46;;;;;;;2.08;1.08;;;;;22.30;101420.00;;;;5048352;28;20850;-77
2022/06/20 06:57:20;;;;;;;7.07;1.90;;;;;22.30;101422.00;;;;5048877;28;20249;-77
2022/06/20 06:59:55;;;;;;;2.42;1.30;;;;;22.50;101423.00;;;;5049059;28;20665;-75
2022/06/20 07:02:26;;;;;;;2.42;1.23;;;;;22.50;101417.00;;;;5047090;28;20199;-76
2022/06/20 07:04:59;;;;;;;3.50;1.30;;;;;22.60;101424.00;;;;5042713;28;20223;-77
2022/06/20 07:07:35;;;;;;;2.40;1.40;;;;;22.60;101433.00;;;;5046087;28;20219;-78
2022/06/20 07:10:05;;;;;;;3.15;1.58;;;;;22.70;101433.00;;;;5041138;28;20671;-77
2022/06/20 07:12:38;;;;;;;5.43;1.30;;;;;22.70;101439.00;;;;5047724;28;20310;-77
2022/06/20 07:15:14;;;;;;;3.65;1.50;;;;;22.70;101440.00;;;;5046463;28;20287;-77
2022/06/20 07:17:48;;;;;;;5.85;1.20;;;;;22.70;101443.00;;;;5047910;28;20265;-77
2022/06/20 07:20:18;;;;;;;3.05;1.70;;;;;22.70;101442.00;;;;5047404;28;20504;-77
2022/06/20 07:22:48;;;;;;;2.50;1.58;;;;;22.60;101431.00;;;;5047855;28;20296;-77
2022/06/20 07:25:20;;;;;;;9.32;1.73;;;;;22.60;101440.00;;;;5046585;28;20230;-77
2022/06/20 07:27:55;;;;;;;2.97;1.45;;;;;22.60;101432.00;;;;5038772;28;20545;-77
2022/06/20 07:30:26;;;;;;;4.03;1.40;;;;;22.60;101442.00;;;;5042353;28;20205;-77
2022/06/20 07:32:59;;;;;;;4.43;1.45;;;;;22.60;101449.00;;;;5047000;28;20191;-77
2022/06/20 07:35:31;;;;;;;3.30;1.40;;;;;22.60;101450.00;;;;5046442;28;20207;-77
2022/06/20 07:38:04;;;;;;;2.15;1.40;;;;;22.70;101443.00;;;;5035535;28;20203;-77
2022/06/20 07:40:37;;;;;;;4.40;1.70;;;;;22.70;101451.00;;;;5045576;28;20230;-77
2022/06/20 07:43:09;;;;;;;3.92;1.50;;;;;22.80;101453.00;;;;5042416;28;20235;-77
2022/06/20 07:45:40;;;;;;;2.45;1.35;;;;;22.90;101454.00;;;;5047836;28;20255;-77
2022/06/20 07:48:14;;;;;;;3.15;1.20;;;;;22.90;101454.00;;;;5046226;28;20199;-77
2022/06/20 07:50:47;;;;;;;4.32;1.20;;;;;22.90;101444.00;;;;5046072;28;20196;-76
2022/06/20 07:53:21;;;;;;;2.83;1.20;;;;;22.90;101452.00;;;;5047419;28;20203;-77
2022/06/20 07:55:56;;;;;;;4.45;1.60;;;;;23.10;101451.00;;;;5035629;28;20198;-77
2022/06/20 07:58:26;;;;;;;2.92;1.38;;;;;23.10;101438.00;;;;5046552;28;20202;-77
2022/06/20 08:00:55;;;;;;;4.70;1.73;;;;;23.30;101442.00;;;;5043634;28;20760;-78
2022/06/20 08:03:28;;;;;;;1.70;1.02;;;;;23.30;101444.00;;;;5045361;28;20204;-77
2022/06/20 08:06:03;;;;;;;4.07;1.45;;;;;23.40;101442.00;;;;5046368;28;20684;-77
2022/06/20 08:08:40;;;;;;;4.95;1.42;;;;;23.50;101437.00;;;;5047757;28;20202;-77
2022/06/20 08:11:39;;;;;;;4.50;1.52;;;;;23.60;101442.00;;;;5047249;28;20203;-77
2022/06/20 08:14:04;;;;;;;3.63;1.80;;;;;23.70;101444.00;;;;5047749;28;20199;-78
2022/06/20 08:16:33;;;;;;;1.70;0.88;;;;;23.80;101451.00;;;;5045215;28;20736;-78
2022/06/20 08:19:01;;;;;;;2.92;1.23;;;;;23.80;101455.00;;;;5044192;28;20562;-78
2022/06/20 08:21:34;;;;;;;2.72;1.15;;;;;23.90;101453.00;;;;5045112;28;20203;-77
2022/06/20 08:24:06;;;;;;;2.00;0.77;;;;;23.90;101456.00;;;;5045734;28;20230;-77
2022/06/20 08:26:39;;;;;;;5.00;1.40;;;;;23.90;101462.00;;;;5047762;28;20195;-78
2022/06/20 08:29:12;;;;;;;2.45;1.05;;;;;23.90;101454.00;;;;5044015;28;20191;-77
2022/06/20 08:31:47;;;;;;;1.30;1.10;;;;;24.00;101462.00;;;;5042759;28;20204;-77
2022/06/20 08:34:19;;;;;;;2.28;1.27;;;;;24.10;101464.00;;;;5042272;28;20203;-77
2022/06/20 08:36:51;;;;;;;4.40;1.42;;;;;24.20;101461.00;;;;5035843;28;20204;-77
2022/06/20 08:39:25;;;;;;;3.67;1.23;;;;;24.30;101460.00;;;;5046831;28;20216;-78
2022/06/20 08:42:12;;;;;;;3.05;1.10;;;;;24.40;101452.00;;;;5047961;28;20204;-76
2022/06/20 08:44:59;;;;;;;3.22;1.30;;;;;24.50;101465.00;;;;5047279;28;20429;-78
2022/06/20 08:48:09;;;;;;;2.20;1.25;;;;;24.50;101465.00;;;;5046684;28;20196;-78
2022/06/20 08:51:06;;;;;;;3.17;1.20;;;;;24.50;101469.00;;;;5045075;28;20203;-77
2022/06/20 08:54:21;;;;;;;3.88;1.25;;;;;24.40;101474.00;;;;5031945;28;20202;-78
2022/06/20 08:57:04;;;;;;;3.40;0.90;;;;;24.40;101476.00;;;;5005288;28;20199;-77
2022/06/20 08:59:59;;;;;;;1.40;0.80;;;;;24.40;101477.00;;;;5045631;28;20204;-77
2022/06/20 09:02:45;;;;;;;1.20;0.98;;;;;24.60;101484.00;;;;5044315;28;20666;-77
2022/06/20 09:05:47;;;;;;;1.70;0.98;;;;;24.60;101482.00;;;;5041353;28;20227;-78
2022/06/20 09:08:32;;;;;;;1.95;1.20;;;;;24.70;101479.00;;;;5038059;28;20225;-77
2022/06/20 09:11:13;;;;;;;2.03;1.00;;;;;24.90;101477.00;;;;5036519;28;20196;-77
2022/06/20 09:14:04;;;;;;;4.80;0.88;;;;;25.00;101480.00;;;;5045693;28;20198;-77
2022/06/20 09:16:43;;;;;;;3.35;1.20;;;;;25.10;101493.00;;;;5041132;28;20195;-76
2022/06/20 09:19:35;;;;;;;2.40;1.30;;;;;25.20;101486.00;;;;5042500;28;20294;-76
2022/06/20 09:22:12;;;;;;;2.25;0.80;;;;;25.40;101490.00;;;;5044608;28;20212;-77
2022/06/20 09:25:03;;;;;;;4.05;1.23;;;;;25.50;101488.00;;;;5031872;28;20224;-76
2022/06/20 09:27:43;;;;;;;2.92;0.70;;;;;25.60;101497.00;;;;5049608;28;20196;-76
2022/06/20 09:30:16;;;;;;;1.80;1.20;;;;;25.70;101499.00;;;;5048686;28;20210;-77
2022/06/20 09:33:12;;;;;;;3.28;0.93;;;;;25.80;101493.00;;;;5037995;28;20219;-76
2022/06/20 09:36:13;;;;;;;2.80;0.90;;;;;25.90;101494.00;;;;5040575;28;20192;-77
2022/06/20 09:38:54;;;;;;;3.88;0.98;;;;;26.00;101496.00;;;;5049715;28;20200;-76
2022/06/20 09:41:31;;;;;;;1.98;0.90;;;;;26.10;101494.00;;;;5045069;28;20218;-77
2022/06/20 09:44:10;;;;;;;2.47;0.95;;;;;26.20;101494.00;;;;5042622;28;20222;-77
2022/06/20 09:46:47;;;;;;;3.30;1.35;;;;;26.30;101500.00;;;;5037730;28;20196;-76
2022/06/20 09:49:23;;;;;;;3.08;0.73;;;;;26.50;101498.00;;;;5036049;28;20234;-78
2022/06/20 09:51:58;;;;;;;5.72;0.90;;;;;26.50;101492.00;;;;5043928;28;20196;-77
2022/06/20 09:54:32;;;;;;;2.28;0.82;;;;;26.50;101505.00;;;;5043804;28;20211;-77
2022/06/20 09:57:10;;;;;;;0.80;0.50;;;;;26.60;101493.00;;;;5048340;28;20265;-77
2022/06/20 09:59:47;;;;;;;2.55;1.00;;;;;26.70;101499.00;;;;5043054;28;20286;-76
2022/06/20 10:02:26;;;;;;;1.60;0.90;;;;;26.80;101504.00;;;;5047743;28;20195;-77
2022/06/20 10:05:02;;;;;;;1.42;0.70;;;;;26.80;101503.00;;;;5047666;28;20246;-77
2022/06/20 10:07:40;;;;;;;2.08;0.63;;;;;26.90;101505.00;;;;5037731;28;20192;-77
2022/06/20 10:10:13;;;;;;;3.22;0.70;;;;;26.90;101498.00;;;;5050763;28;20192;-76
2022/06/20 10:12:46;;;;;;;2.25;0.73;;;;;27.00;101505.00;;;;5049853;28;20203;-76
2022/06/20 10:15:23;;;;;;;1.27;0.60;;;;;27.00;101510.00;;;;5048841;28;20196;-79
2022/06/20 10:18:02;;;;;;;1.17;0.50;;;;;27.00;101503.00;;;;5049280;28;20207;-78
2022/06/20 10:20:45;;;;;;;1.38;0.52;;;;;27.00;101503.00;;;;5041292;28;20678;-78
2022/06/20 10:23:28;;;;;;;2.65;0.88;;;;;27.10;101520.00;;;;5045712;28;20230;-80
2022/06/20 10:26:20;;;;;;;2.58;0.88;;;;;27.10;101518.00;;;;5039859;28;20227;-78
2022/06/20 10:28:49;;;;;;;3.83;0.80;;;;;27.20;101516.00;;;;5047099;28;20654;-78
2022/06/20 10:31:35;;;;;;;2.20;0.90;;;;;27.20;101526.00;;;;5045711;28;20199;-78
2022/06/20 10:34:10;;;;;;;3.03;0.93;;;;;27.30;101524.00;;;;5042163;28;20192;-79
2022/06/20 10:36:50;;;;;;;1.33;0.73;;;;;27.30;101533.00;;;;5049687;28;20202;-78
2022/06/20 10:39:29;;;;;;;0.68;0.52;;;;;27.40;101523.00;;;;5049611;28;20202;-79
2022/06/20 10:42:11;;;;;;;2.90;0.98;;;;;27.40;101534.00;;;;5046450;28;20561;-78
2022/06/20 10:44:55;;;;;;;1.55;1.20;;;;;27.30;101536.00;;;;5048392;28;20231;-78
2022/06/20 10:47:36;;;;;;;1.70;0.90;;;;;27.30;101536.00;;;;5047916;28;20213;-78
2022/06/20 10:50:16;;;;;;;1.08;0.55;;;;;27.20;101532.00;;;;5028254;28;20576;-79
2022/06/20 10:52:58;;;;;;;3.03;1.05;;;;;27.20;101542.00;;;;5048341;28;20281;-78
2022/06/20 10:55:36;;;;;;;4.35;1.08;;;;;27.20;101543.00;;;;5048278;28;20211;-79
2022/06/20 10:58:12;;;;;;;1.85;0.90;;;;;27.20;101549.00;;;;5048757;28;20211;-79
2022/06/20 11:00:46;;;;;;;4.43;1.00;;;;;27.20;101553.00;;;;5047186;28;20566;-79
2022/06/20 11:03:44;;;;;;;3.20;1.08;;;;;27.10;101560.00;;;;5033947;28;20202;-78
2022/06/20 11:06:22;;;;;;;4.20;1.10;;;;;27.10;101563.00;;;;5040299;28;20227;-79
2022/06/20 11:09:01;;;;;;;1.95;1.13;;;;;27.10;101568.00;;;;5048195;28;20230;-78
2022/06/20 11:11:40;;;;;;;2.25;0.77;;;;;27.10;101550.00;;;;5046696;28;20199;-78
2022/06/20 11:14:20;;;;;;;2.00;0.98;;;;;27.10;101546.00;;;;5047199;28;20191;-78
2022/06/20 11:16:59;;;;;;;2.50;0.73;;;;;27.10;101560.00;;;;5044500;28;20204;-77
2022/06/20 11:19:37;;;;;;;3.28;1.30;;;;;27.10;101561.00;;;;5047500;28;20203;-77
2022/06/20 11:22:17;;;;;;;3.65;1.05;;;;;27.00;101570.00;;;;5050625;28;20560;-77
2022/06/20 11:24:54;;;;;;;2.65;1.00;;;;;27.10;101554.00;;;;5046228;28;20318;-79
2022/06/20 11:27:57;;;;;;;1.50;0.60;;;;;27.00;101567.00;;;;5046916;28;20580;-78
2022/06/20 11:30:34;;;;;;;3.83;1.30;;;;;27.00;101576.00;;;;5041279;28;20194;-80
2022/06/20 11:33:14;;;;;;;1.92;0.93;;;;;27.00;101574.00;;;;5049027;28;20199;-78
2022/06/20 11:35:49;;;;;;;1.63;0.70;;;;;26.90;101578.00;;;;5044467;28;20192;-77
2022/06/20 11:38:39;;;;;;;1.55;0.90;;;;;26.80;101581.00;;;;5044491;28;20207;-78
2022/06/20 11:41:11;;;;;;;1.70;0.82;;;;;26.80;101575.00;;;;5032943;28;20219;-78
2022/06/20 11:44:15;;;;;;;1.38;0.70;;;;;26.70;101571.00;;;;5045091;28;20316;-78
2022/06/20 11:47:02;;;;;;;2.15;0.88;;;;;26.80;101577.00;;;;5047284;28;20232;-78
2022/06/20 11:49:46;;;;;;;1.90;0.90;;;;;26.80;101590.00;;;;5036917;28;20199;-79
2022/06/20 11:52:21;;;;;;;2.35;0.98;;;;;26.80;101586.00;;;;5045435;28;20195;-78
2022/06/20 11:55:00;;;;;;;4.15;1.10;;;;;26.80;101586.00;;;;5046015;28;20208;-77
2022/06/20 11:57:34;;;;;;;2.88;0.93;;;;;26.80;101585.00;;;;5047129;28;20669;-78
2022/06/20 12:00:04;;;;;;;2.03;0.90;;;;;26.80;101591.00;;;;5029001;28;20215;-78
2022/06/20 12:02:53;;;;;;;2.55;1.10;;;;;26.70;101601.00;;;;5043675;28;20199;-78
2022/06/20 12:05:39;;;;;;;3.03;1.00;;;;;26.70;101590.00;;;;5043084;28;20223;-77
2022/06/20 12:08:16;;;;;;;2.35;0.88;;;;;26.70;101600.00;;;;5047893;28;20676;-77
2022/06/20 12:10:50;;;;;;;2.30;0.95;;;;;26.70;101600.00;;;;5047676;28;20197;-76
2022/06/20 12:13:30;;;;;;;1.90;0.80;;;;;26.70;101606.00;;;;5045706;28;20565;-77
2022/06/20 12:16:05;;;;;;;5.85;1.50;;;;;26.60;101607.00;;;;5043556;28;20211;-77
2022/06/20 12:24:41;;;;;;;1.73;0.80;;;;;26.50;101598.00;;;;5049811;28;20207;-77
2022/06/20 12:27:13;;;;;;;2.88;0.82;;;;;26.50;101600.00;;;;5045870;28;20219;-78
2022/06/20 12:29:41;;;;;;;3.38;0.73;;;;;26.50;101606.00;;;;5045327;28;20204;-77
2022/06/20 12:32:15;;;;;;;2.55;1.25;;;;;26.40;101609.00;;;;5043334;28;20299;-77
2022/06/20 12:34:51;;;;;;;2.72;1.20;;;;;26.30;101614.00;;;;5032381;28;20196;-79
2022/06/20 12:37:26;;;;;;;2.85;0.93;;;;;26.30;101603.00;;;;5047229;28;20199;-78
2022/06/20 12:39:59;;;;;;;6.20;1.33;;;;;26.30;101603.00;;;;5046044;28;20188;-78
2022/06/20 12:42:42;;;;;;;1.42;0.68;;;;;26.30;101602.00;;;;5040638;28;20199;-78
2022/06/20 12:45:31;;;;;;;8.52;1.33;;;;;26.20;101600.00;;;;5046239;28;20206;-78
2022/06/20 12:48:17;;;;;;;2.08;0.95;;;;;26.20;101601.00;;;;5043987;28;20204;-78
2022/06/20 12:50:51;;;;;;;5.07;0.93;;;;;26.30;101616.00;;;;5042627;28;20207;-78
2022/06/20 12:53:35;;;;;;;1.98;0.80;;;;;26.20;101603.00;;;;5047202;28;20206;-79
2022/06/20 12:56:17;;;;;;;3.08;1.33;;;;;26.20;101609.00;;;;5032645;28;20200;-77
2022/06/20 12:59:06;;;;;;;2.80;1.08;;;;;26.10;101607.00;;;;5049796;28;20281;-77
2022/06/20 13:01:40;;;;;;;1.50;0.90;;;;;26.20;101603.00;;;;5049550;28;20210;-77
2022/06/20 13:04:24;;;;;;;1.85;1.00;;;;;26.10;101612.00;;;;5050190;28;20206;-79